Погода Асторгана 2 недели

Парана, Бразилия

18 - 31 июля
  • 18июля
    Сегодня
    +16°
    +27°
    Ясно и безоблачно
    ВремяПогодаТемператураВлажностьДавлениеВетер, м/сВероятность осадков
    00:00Ясно и безоблачно+18°C84 %714 мм2.1 м/с5 %
    03:00Ясно и безоблачно+18°C84 %713 мм2.6 м/с5 %
    06:00Ясно и безоблачно+18°C83 %713 мм2.8 м/с5 %
    09:00Ясно и безоблачно+20°C72 %715 мм3.2 м/с5 %
    12:00Ясно и безоблачно+24°C48 %715 мм3.8 м/с5 %
    15:00Ясно и безоблачно+27°C44 %714 мм2.7 м/с5 %
    18:00Ясно и безоблачно+23°C64 %713 мм2.1 м/с5 %
    21:00Ясно и безоблачно+21°C67 %714 мм2.7 м/с5 %
  • 19июля
    Пятница
    +16°
    +27°
    Ясно и безоблачно
    ВремяПогодаТемператураВлажностьДавлениеВетер, м/сВероятность осадков
    00:00Ясно и безоблачно+20°C67 %714 мм3.1 м/с5 %
    03:00Ясно и безоблачно+18°C73 %713 мм3.0 м/с5 %
    06:00Ясно и безоблачно+17°C73 %714 мм3.6 м/с5 %
    09:00Ясно и безоблачно+19°C70 %716 мм4.0 м/с5 %
    12:00Ясно и безоблачно+24°C50 %717 мм4.1 м/с5 %
    15:00Ясно и безоблачно+27°C40 %716 мм2.3 м/с5 %
    18:00Ясно и безоблачно+22°C63 %715 мм2.2 м/с5 %
    21:00Ясно и безоблачно+20°C77 %715 мм2.0 м/с5 %
  • 20июля
    Суббота
    +15°
    +27°
    Ясно и безоблачно
    ВремяПогодаТемператураВлажностьДавлениеВетер, м/сВероятность осадков
    00:00Ясно и безоблачно+19°C77 %715 мм2.5 м/с5 %
    03:00Ясно и безоблачно+18°C79 %714 мм2.5 м/с5 %
    06:00Ясно и безоблачно+17°C81 %714 мм2.8 м/с5 %
    09:00Ясно и безоблачно+20°C66 %716 мм3.2 м/с5 %
    12:00Ясно и безоблачно+24°C45 %716 мм3.3 м/с5 %
    15:00Ясно и безоблачно+26°C39 %715 мм2.1 м/с5 %
    18:00Ясно и безоблачно+22°C63 %713 мм2.5 м/с5 %
    21:00Ясно и безоблачно+20°C64 %714 мм2.7 м/с5 %
  • 21июля
    Воскресенье
    +17°
    +26°
    Ясно и безоблачно
    ВремяПогодаТемператураВлажностьДавлениеВетер, м/сВероятность осадков
    00:00Ясно и безоблачно+19°C62 %714 мм3.5 м/с5 %
    03:00Ясно и безоблачно+17°C67 %712 мм4.1 м/с5 %
    06:00Ясно и безоблачно+16°C65 %712 мм4.2 м/с5 %
    09:00Ясно и безоблачно+17°C61 %714 мм4.2 м/с5 %
    12:00Ясно и безоблачно+23°C48 %715 мм4.3 м/с5 %
    15:00Ясно и безоблачно+26°C46 %713 мм3.1 м/с5 %
    18:00Ясно и безоблачно+22°C70 %713 мм2.1 м/с5 %
    21:00Ясно и безоблачно+21°C74 %713 мм2.7 м/с5 %
  • 22июля
    Понедельник
    +17°
    +28°
    Небольшая облачность
    ВремяПогодаТемператураВлажностьДавлениеВетер, м/сВероятность осадков
    00:00Ясно и безоблачно+20°C77 %714 мм2.9 м/с5 %
    03:00Ясно и безоблачно+19°C75 %713 мм2.7 м/с5 %
    06:00Ясно и безоблачно+18°C75 %714 мм2.9 м/с5 %
    09:00Ясно и безоблачно+21°C66 %715 мм3.0 м/с5 %
    12:00Облачно с прояснениями+25°C45 %716 мм3.2 м/с5 %
    15:00Небольшая облачность+28°C37 %714 мм0.9 м/с5 %
    18:00Ясно и безоблачно+23°C60 %714 мм2.2 м/с5 %
    21:00Ясно и безоблачно+21°C66 %714 мм2.3 м/с5 %
Мы используем cookies
Соглашаюсь